Time;durP1;ratioP1;P1;durP2;ratioP2;P2;SDS_P1;SDS_P2;PMS_P1;PMS_P2;Temp;Humidity;BMP_temperature;BMP_pressure;BME280_temperature;BME280_humidity;BME280_pressure;Samples;Min_cycle;Max_cycle;Signal;HPM_P1;HPM_P2
2021/12/17 00:02:36;;;;;;;25.85;19.77;;;;;;;7.04;96.55;104002.34;4877900;29;20462;-88
2021/12/17 00:07:28;;;;;;;26.35;19.92;;;;;;;7.03;97.04;103997.91;4877955;29;20143;-88
2021/12/17 00:09:56;;;;;;;30.75;22.27;;;;;;;7.01;97.14;103995.22;4862457;29;20045;-88
2021/12/17 00:12:23;;;;;;;30.50;20.77;;;;;;;7.02;96.91;103988.19;4879240;29;20044;-88
2021/12/17 00:14:50;;;;;;;30.65;22.13;;;;;;;7.02;96.65;103986.50;4878169;29;20127;-89
2021/12/17 00:17:23;;;;;;;31.55;22.25;;;;;;;7.03;97.13;103998.81;4877997;29;20059;-88
2021/12/17 00:52:33;;;;;;;35.83;22.23;;;;;;;7.09;97.53;103988.53;4876996;29;20044;-89
2021/12/17 00:55:00;;;;;;;49.38;28.13;;;;;;;7.14;97.80;103987.84;4861685;29;20514;-89
2021/12/17 00:57:35;;;;;;;51.95;28.80;;;;;;;7.14;97.97;103990.47;4877032;29;20107;-88
2021/12/17 01:00:07;;;;;;;53.22;30.13;;;;;;;7.11;98.23;103985.97;4860101;29;20033;-89
2021/12/17 01:02:34;;;;;;;45.53;27.67;;;;;;;7.13;98.16;103989.56;4857517;29;20120;-89
2021/12/17 01:05:04;;;;;;;48.95;28.42;;;;;;;7.14;98.04;103990.47;4861579;29;20044;-89
2021/12/17 01:07:33;;;;;;;51.70;29.40;;;;;;;7.10;98.66;103977.16;4876741;29;20037;-89
2021/12/17 01:10:05;;;;;;;61.75;32.10;;;;;;;7.17;98.41;103990.59;4877118;29;20021;-89
2021/12/17 01:12:39;;;;;;;53.05;30.63;;;;;;;7.17;97.87;103985.31;4876354;29;20405;-89
2021/12/17 01:15:26;;;;;;;63.05;31.77;;;;;;;7.20;98.02;103980.19;4876182;29;20053;-89
2021/12/17 01:18:40;;;;;;;49.75;28.88;;;;;;;7.19;98.57;103968.72;4839017;29;20053;-89
2021/12/17 01:25:01;;;;;;;56.03;30.10;;;;;;;7.24;97.90;103972.47;4875441;29;20053;-88
2021/12/17 01:36:00;;;;;;;54.90;28.08;;;;;;;7.26;97.51;103973.44;4877325;29;20390;-90
2021/12/17 01:44:06;;;;;;;55.22;29.10;;;;;;;7.29;97.94;103972.66;4844943;29;20690;-89
2021/12/17 01:46:34;;;;;;;64.95;33.90;;;;;;;7.28;97.85;103970.88;4872407;29;20035;-89
2021/12/17 01:55:48;;;;;;;62.08;31.00;;;;;;;7.28;97.68;103969.13;4873221;29;20049;-89
2021/12/17 02:00:15;;;;;;;67.93;33.63;;;;;;;7.29;97.63;103956.84;4869396;29;20107;-89
2021/12/17 02:02:51;;;;;;;71.15;34.20;;;;;;;7.31;98.22;103969.25;4876647;29;20132;-89
2021/12/17 02:05:26;;;;;;;66.45;33.15;;;;;;;7.30;97.90;103978.00;4876052;29;20029;-89
2021/12/17 02:07:55;;;;;;;72.10;35.20;;;;;;;7.30;97.90;103963.94;4842288;29;20041;-89
2021/12/17 02:32:03;;;;;;;62.97;32.90;;;;;;;7.37;98.26;103978.25;4879463;29;20136;-89
2021/12/17 02:35:01;;;;;;;69.88;34.47;;;;;;;7.38;97.96;103977.44;4864200;29;20029;-90
2021/12/17 02:37:21;;;;;;;67.70;34.10;;;;;;;7.37;98.34;103972.97;4879321;29;20105;-89
2021/12/17 02:45:32;;;;;;;80.70;36.65;;;;;;;7.37;98.45;103976.53;4865503;29;20041;-89
2021/12/17 02:48:10;;;;;;;79.68;36.60;;;;;;;7.38;98.02;103974.78;4863997;29;20036;-90
2021/12/17 02:50:42;;;;;;;75.25;34.47;;;;;;;7.38;98.10;103969.53;4879312;29;20407;-89
2021/12/17 02:53:08;;;;;;;82.78;36.47;;;;;;;7.38;98.32;103972.16;4880746;29;20037;-90
2021/12/17 02:55:40;;;;;;;79.25;35.80;;;;;;;7.37;97.89;103972.97;4848678;29;20040;-89
2021/12/17 02:58:07;;;;;;;80.72;34.58;;;;;;;7.36;98.14;103974.72;4863870;29;20072;-90
2021/12/17 03:00:35;;;;;;;80.47;35.70;;;;;;;7.38;98.66;103973.03;4876240;29;20029;-89
2021/12/17 03:03:03;;;;;;;75.65;35.40;;;;;;;7.38;98.17;103977.44;4845722;29;20423;-90
2021/12/17 03:05:29;;;;;;;75.70;34.53;;;;;;;7.40;97.94;103983.66;4860996;29;20502;-89
2021/12/17 03:07:56;;;;;;;77.38;34.30;;;;;;;7.39;97.61;103974.84;4855683;29;20037;-89
2021/12/17 03:10:24;;;;;;;77.32;34.95;;;;;;;7.38;98.34;103974.78;4863745;29;20089;-90
2021/12/17 03:12:54;;;;;;;71.10;31.67;;;;;;;7.37;97.83;103962.44;4879236;29;20041;-89
2021/12/17 03:15:30;;;;;;;74.83;34.67;;;;;;;7.38;97.93;103967.78;4863011;29;20072;-89
2021/12/17 03:23:39;;;;;;;73.45;33.58;;;;;;;7.40;98.17;103973.13;4879076;29;20128;-90
2021/12/17 03:26:06;;;;;;;74.03;34.63;;;;;;;7.40;97.95;103975.75;4864893;29;20047;-90
2021/12/17 03:28:32;;;;;;;80.68;35.72;;;;;;;7.39;98.68;103984.50;4863598;29;20029;-90
2021/12/17 03:30:59;;;;;;;79.63;35.67;;;;;;;7.40;98.18;103973.13;4878895;29;20381;-90
2021/12/17 03:33:25;;;;;;;77.47;33.60;;;;;;;7.40;98.92;103981.03;4878970;29;20025;-90
2021/12/17 03:35:52;;;;;;;71.75;33.25;;;;;;;7.37;98.44;103975.59;4859765;29;20041;-89
2021/12/17 03:38:18;;;;;;;77.68;34.95;;;;;;;7.39;98.48;103981.84;4861965;29;20424;-89
2021/12/17 03:40:45;;;;;;;65.50;30.98;;;;;;;7.36;98.51;103976.47;4863256;29;20358;-90
2021/12/17 03:43:24;;;;;;;74.72;33.72;;;;;;;7.37;98.57;103967.69;4864722;29;20029;-90
2021/12/17 03:45:50;;;;;;;75.72;34.08;;;;;;;7.35;98.52;103974.66;4864228;29;20112;-90
2021/12/17 03:48:16;;;;;;;74.28;33.75;;;;;;;7.33;98.43;103975.50;4863145;29;20032;-90
2021/12/17 03:50:42;;;;;;;71.70;31.60;;;;;;;7.36;98.30;103984.38;4859999;29;20049;-89
2021/12/17 03:53:08;;;;;;;76.43;34.92;;;;;;;7.36;98.46;103985.25;4875680;29;20446;-90
2021/12/17 03:55:39;;;;;;;76.13;33.45;;;;;;;7.36;98.50;103982.63;4829955;29;20042;-87
2021/12/17 03:58:08;;;;;;;76.63;31.80;;;;;;;7.34;98.96;103976.38;4873814;29;20056;-90
2021/12/17 04:00:38;;;;;;;66.45;30.27;;;;;;;7.31;98.53;103971.88;4863956;29;20048;-89
2021/12/17 04:03:04;;;;;;;64.75;31.05;;;;;;;7.35;98.67;103977.31;4863167;29;20041;-90
2021/12/17 04:05:45;;;;;;;68.50;29.95;;;;;;;7.30;98.82;103967.47;4865151;29;20478;-90
2021/12/17 04:08:26;;;;;;;73.60;30.25;;;;;;;7.32;98.64;103971.06;4878459;29;20461;-89
2021/12/17 04:11:19;;;;;;;60.63;27.88;;;;;;;7.34;98.66;103976.38;4854273;29;20049;-90
2021/12/17 04:13:57;;;;;;;56.22;28.13;;;;;;;7.33;98.34;103966.69;4832436;29;20045;-90
2021/12/17 04:16:27;;;;;;;52.97;26.25;;;;;;;7.33;98.93;103964.94;4863224;29;20374;-90
2021/12/17 04:18:54;;;;;;;54.67;27.60;;;;;;;7.32;98.56;103976.34;4863273;29;20049;-90
2021/12/17 04:21:21;;;;;;;59.47;27.40;;;;;;;7.32;98.18;103983.34;4870598;29;20033;-90
2021/12/17 04:23:51;;;;;;;56.20;27.23;;;;;;;7.32;99.06;103980.72;4877791;29;20041;-90
2021/12/17 04:26:18;;;;;;;57.58;27.52;;;;;;;7.31;98.37;103982.44;4862874;29;20033;-90
2021/12/17 04:28:49;;;;;;;58.35;26.52;;;;;;;7.30;98.96;103978.00;4862385;29;20037;-89
2021/12/17 04:31:19;;;;;;;57.30;28.75;;;;;;;7.30;98.94;103974.47;4862891;29;20044;-89
2021/12/17 04:33:46;;;;;;;50.35;26.17;;;;;;;7.32;98.67;103983.34;4862939;29;20037;-90
2021/12/17 04:36:19;;;;;;;55.08;27.10;;;;;;;7.29;98.11;103981.50;4862306;29;20123;-89
2021/12/17 04:38:45;;;;;;;51.20;25.00;;;;;;;7.28;98.27;103971.75;4862441;29;20041;-90
2021/12/17 04:59:47;;;;;;;46.47;23.00;;;;;;;7.23;98.46;103967.16;4860976;29;20422;-90
2021/12/17 05:02:15;;;;;;;45.00;22.67;;;;;;;7.23;98.72;103968.03;4877194;29;20048;-89
2021/12/17 05:04:52;;;;;;;45.85;23.20;;;;;;;7.24;98.97;103966.28;4876988;29;20048;-90
2021/12/17 05:07:18;;;;;;;35.55;19.83;;;;;;;7.22;98.93;103968.88;4830623;29;20410;-89
2021/12/17 05:20:47;;;;;;;45.17;22.42;;;;;;;7.18;98.52;103982.75;4876987;29;20033;-89
2021/12/17 05:23:13;;;;;;;44.38;22.08;;;;;;;7.15;98.53;103982.63;4861069;29;20040;-89
2021/12/17 05:25:38;;;;;;;35.75;19.85;;;;;;;7.15;98.72;103984.38;4861006;29;20342;-89
2021/12/17 05:28:04;;;;;;;42.03;21.50;;;;;;;7.15;98.70;103987.00;4845928;29;20045;-89
2021/12/17 05:30:36;;;;;;;;;;;;;;;7.21;98.62;103995.16;4876975;29;20532;-90
2021/12/17 05:33:02;;;;;;;33.28;19.45;;;;;;;7.16;98.41;103991.44;4861336;29;19919;-90
2021/12/17 05:35:28;;;;;;;35.88;18.90;;;;;;;7.14;98.52;103994.00;4861234;29;20453;-90
2021/12/17 05:37:56;;;;;;;32.95;19.25;;;;;;;7.11;98.65;103988.59;4876703;29;20520;-90
2021/12/17 05:40:22;;;;;;;36.33;20.90;;;;;;;7.11;98.25;103988.59;4873849;29;20033;-89
2021/12/17 05:42:50;;;;;;;38.03;20.73;;;;;;;7.08;98.34;103986.72;4857779;29;20558;-89
2021/12/17 05:45:36;;;;;;;41.45;21.23;;;;;;;7.08;98.42;103988.47;4859107;29;20038;-89
2021/12/17 05:48:05;;;;;;;42.37;21.70;;;;;;;7.09;98.06;103987.63;4845589;29;20038;-90
2021/12/17 05:50:32;;;;;;;37.70;20.17;;;;;;;7.08;98.89;103976.19;4868717;29;20105;-90
2021/12/17 05:52:58;;;;;;;41.45;21.08;;;;;;;7.07;98.61;103979.69;4860306;29;20041;-89
2021/12/17 05:55:23;;;;;;;40.45;21.08;;;;;;;7.06;98.29;103979.59;4860434;29;20063;-90
2021/12/17 05:57:50;;;;;;;41.42;21.05;;;;;;;7.05;99.18;103988.34;4860480;29;20559;-89
2021/12/17 06:00:16;;;;;;;35.45;20.92;;;;;;;7.04;98.97;103994.44;4860113;29;20132;-89
2021/12/17 06:02:42;;;;;;;41.33;20.42;;;;;;;7.03;98.05;104000.56;4876255;29;20077;-89
2021/12/17 06:05:09;;;;;;;33.38;19.10;;;;;;;7.03;98.48;103997.91;4860489;29;20424;-90
2021/12/17 06:07:38;;;;;;;39.60;21.00;;;;;;;7.04;98.71;104002.34;4860719;29;20374;-90
2021/12/17 06:10:05;;;;;;;36.40;20.80;;;;;;;7.03;98.68;104003.19;4875558;29;20041;-90
2021/12/17 06:12:40;;;;;;;36.15;20.42;;;;;;;7.01;98.68;104004.84;4861353;29;20041;-89
2021/12/17 06:15:10;;;;;;;38.50;20.27;;;;;;;7.00;99.00;104003.97;4860766;29;20495;-89
2021/12/17 06:17:36;;;;;;;35.47;20.33;;;;;;;6.99;98.40;104009.16;4875727;29;20041;-90
2021/12/17 06:20:04;;;;;;;36.67;21.17;;;;;;;7.00;98.89;104008.34;4875725;29;20076;-90
2021/12/17 06:22:29;;;;;;;39.25;20.38;;;;;;;7.01;98.84;104010.13;4875597;29;20029;-90
2021/12/17 06:25:00;;;;;;;36.42;20.92;;;;;;;7.01;98.83;104012.75;4846325;29;20042;-90
2021/12/17 06:27:26;;;;;;;39.17;21.60;;;;;;;7.00;99.09;104008.34;4844910;29;20045;-90
2021/12/17 06:29:53;;;;;;;36.80;19.77;;;;;;;7.00;99.33;104010.97;4860205;29;20084;-89
2021/12/17 06:32:20;;;;;;;32.58;19.95;;;;;;;7.00;99.09;104024.16;4860079;29;20041;-90
2021/12/17 06:34:47;;;;;;;34.53;20.63;;;;;;;6.98;99.03;104016.16;4860076;29;20405;-90
2021/12/17 06:37:15;;;;;;;33.40;19.85;;;;;;;6.97;99.07;104022.25;4859901;29;20359;-90
2021/12/17 06:39:42;;;;;;;34.38;20.50;;;;;;;6.96;98.98;104022.19;4860343;29;20043;-88
2021/12/17 06:42:08;;;;;;;34.58;20.80;;;;;;;6.96;99.16;104015.19;4875673;29;20195;-89
2021/12/17 06:44:34;;;;;;;39.45;21.63;;;;;;;6.97;99.03;104022.25;4844683;29;20033;-90
2021/12/17 06:47:14;;;;;;;40.17;21.52;;;;;;;6.98;98.79;104020.53;4875725;29;20044;-89
2021/12/17 07:10:39;;;;;;;30.15;19.58;;;;;;;6.95;99.13;104017.75;4831473;29;20053;-90
2021/12/17 07:21:21;;;;;;;35.72;20.90;;;;;;;6.93;98.97;104027.34;4853347;29;20124;-90
2021/12/17 07:39:54;;;;;;;36.92;21.60;;;;;;;6.87;99.52;103998.97;4860430;29;20238;-91
2021/12/17 07:42:23;;;;;;;39.75;21.55;;;;;;;6.87;99.83;104001.59;4845065;29;20120;-91
2021/12/17 07:45:09;;;;;;;40.33;21.73;;;;;;;6.90;99.52;104007.03;4859973;29;20478;-91
2021/12/17 07:47:38;;;;;;;36.63;20.45;;;;;;;6.89;99.57;104007.84;4830187;29;20124;-91
2021/12/17 07:50:26;;;;;;;38.85;22.20;;;;;;;6.91;99.63;104011.44;4865170;29;20525;-91
2021/12/17 07:53:17;;;;;;;42.90;22.02;;;;;;;6.92;99.79;104004.44;4858716;29;20465;-91
2021/12/17 07:55:57;;;;;;;37.78;21.85;;;;;;;6.86;100.00;103987.53;4864724;29;20044;-91
2021/12/17 07:58:23;;;;;;;38.60;21.73;;;;;;;6.93;99.84;104008.91;4863012;29;20063;-91
2021/12/17 08:00:49;;;;;;;43.05;22.13;;;;;;;6.89;99.71;104003.47;4848075;29;20060;-91
2021/12/17 08:03:15;;;;;;;42.45;21.75;;;;;;;6.94;99.98;104002.78;4847658;29;20037;-91
2021/12/17 08:05:51;;;;;;;40.10;20.88;;;;;;;6.95;99.72;104010.75;4849903;29;20047;-91
2021/12/17 08:08:17;;;;;;;43.58;21.52;;;;;;;6.94;99.77;104019.47;4863089;29;20081;-90
2021/12/17 08:10:50;;;;;;;41.22;22.00;;;;;;;6.88;99.74;104001.69;4834932;29;20101;-91
2021/12/17 08:13:21;;;;;;;40.10;21.20;;;;;;;6.95;100.00;104026.56;4879801;29;20037;-91
2021/12/17 08:26:40;;;;;;;46.97;24.08;;;;;;;6.96;100.00;104041.53;4850499;29;20044;-90
2021/12/17 08:31:56;;;;;;;46.88;22.10;;;;;;;6.95;100.00;104033.56;4865545;29;20410;-91
2021/12/17 08:34:29;;;;;;;45.97;23.27;;;;;;;6.98;100.00;104031.97;4849561;29;20025;-91
2021/12/17 08:36:55;;;;;;;52.78;24.17;;;;;;;6.98;100.00;104036.34;4862569;29;20147;-91
2021/12/17 08:39:22;;;;;;;49.35;24.13;;;;;;;6.99;100.00;104032.88;4847056;29;20465;-91
2021/12/17 08:41:52;;;;;;;52.10;23.60;;;;;;;7.00;100.00;104035.59;4848036;29;20040;-91
2021/12/17 08:44:19;;;;;;;53.03;25.42;;;;;;;7.02;100.00;104044.47;4847668;29;20078;-91
2021/12/17 08:47:05;;;;;;;53.13;25.17;;;;;;;7.03;100.00;104043.63;4865168;29;20497;-91
2021/12/17 08:49:35;;;;;;;56.08;23.90;;;;;;;7.02;100.00;104033.00;4878317;29;20056;-91
2021/12/17 08:52:08;;;;;;;48.03;22.45;;;;;;;7.06;100.00;104029.66;4848739;29;20071;-91
2021/12/17 08:54:34;;;;;;;53.72;24.77;;;;;;;7.06;100.00;104033.19;4862178;29;20051;-91
2021/12/17 08:57:02;;;;;;;54.17;26.45;;;;;;;7.04;100.00;104024.31;4878187;29;20029;-91
2021/12/17 08:59:33;;;;;;;50.83;24.58;;;;;;;7.01;100.00;104013.66;4877586;29;20148;-90
2021/12/17 09:02:25;;;;;;;54.30;25.15;;;;;;;7.10;100.00;104024.59;4875057;29;20124;-91
2021/12/17 09:05:07;;;;;;;50.45;24.65;;;;;;;7.10;100.00;104032.50;4850652;29;20033;-91
2021/12/17 09:07:35;;;;;;;53.15;24.48;;;;;;;7.10;100.00;104032.50;4862450;29;20051;-91
2021/12/17 09:10:22;;;;;;;55.08;25.30;;;;;;;7.11;100.00;104036.94;4866039;29;20036;-90
2021/12/17 09:12:49;;;;;;;55.20;25.70;;;;;;;7.11;100.00;104046.59;4862067;29;20041;-91
2021/12/17 09:15:15;;;;;;;56.20;25.23;;;;;;;7.13;100.00;104044.03;4861880;29;20037;-91
2021/12/17 09:17:59;;;;;;;55.42;24.88;;;;;;;7.15;100.00;104055.53;4877786;29;20056;-91
2021/12/17 09:20:25;;;;;;;59.85;26.13;;;;;;;7.14;100.00;104057.25;4876983;29;20413;-91
2021/12/17 09:22:53;;;;;;;56.42;26.00;;;;;;;7.16;100.00;104059.97;4861776;29;20025;-91
2021/12/17 09:25:20;;;;;;;62.45;25.58;;;;;;;7.18;100.00;104063.56;4846576;29;20175;-91
2021/12/17 09:27:55;;;;;;;60.10;25.75;;;;;;;7.16;100.00;104055.59;4862617;29;20029;-90
2021/12/17 09:30:27;;;;;;;56.63;25.45;;;;;;;7.20;100.00;104067.19;4862386;29;20037;-91
2021/12/17 09:32:53;;;;;;;58.45;25.88;;;;;;;7.20;100.00;104073.34;4861446;29;20057;-91
2021/12/17 09:35:21;;;;;;;58.85;25.10;;;;;;;7.23;100.00;104062.03;4830508;29;20169;-91
2021/12/17 09:37:46;;;;;;;58.33;25.40;;;;;;;7.23;100.00;104064.69;4846206;29;20055;-92
2021/12/17 09:40:12;;;;;;;53.42;23.83;;;;;;;7.26;100.00;104070.06;4877063;29;20029;-91
2021/12/17 09:42:39;;;;;;;52.42;22.83;;;;;;;7.28;100.00;104071.94;4861454;29;20123;-91
2021/12/17 09:45:05;;;;;;;57.78;24.33;;;;;;;7.29;100.00;104071.13;4861210;29;20037;-91
2021/12/17 09:47:31;;;;;;;53.90;24.48;;;;;;;7.32;100.00;104068.63;4876928;29;20040;-91
2021/12/17 09:49:57;;;;;;;54.00;23.30;;;;;;;7.36;100.00;104068.75;4845655;29;20044;-90
2021/12/17 09:52:24;;;;;;;55.13;23.90;;;;;;;7.38;100.00;104082.91;4861362;29;20061;-92
2021/12/17 09:54:50;;;;;;;55.88;24.15;;;;;;;7.41;100.00;104088.28;4861354;29;20041;-91
2021/12/17 09:57:17;;;;;;;60.30;27.00;;;;;;;7.44;100.00;104091.06;4861256;29;20144;-91
2021/12/17 09:59:43;;;;;;;57.40;24.13;;;;;;;7.44;100.00;104091.06;4861387;29;20151;-91
2021/12/17 10:02:09;;;;;;;63.95;26.35;;;;;;;7.45;100.00;104091.13;4876751;29;20518;-91
2021/12/17 10:04:35;;;;;;;53.58;24.65;;;;;;;7.47;100.00;104101.75;4861123;29;20029;-91
2021/12/17 10:07:19;;;;;;;56.72;24.27;;;;;;;7.48;100.00;104099.16;4845812;29;20167;-91
2021/12/17 10:09:59;;;;;;;56.38;23.35;;;;;;;7.52;100.00;104102.84;4877918;29;20462;-91
2021/12/17 10:12:30;;;;;;;52.80;23.13;;;;;;;7.51;100.00;104099.28;4876665;29;20063;-91
2021/12/17 10:15:14;;;;;;;;;;;;;;;7.57;100.00;104097.75;4876828;29;20052;-91
2021/12/17 10:17:58;;;;;;;51.22;21.67;;;;;;;7.55;100.00;104095.06;4876660;29;19916;-91
2021/12/17 10:20:25;;;;;;;51.13;21.55;;;;;;;7.54;100.00;104096.81;4876503;29;20124;-91
2021/12/17 10:23:06;;;;;;;56.13;21.67;;;;;;;7.54;100.00;104096.81;4845904;29;20060;-91
2021/12/17 10:25:34;;;;;;;55.50;22.55;;;;;;;7.58;100.00;104091.66;4876417;29;20450;-91
2021/12/17 10:28:05;;;;;;;52.00;22.15;;;;;;;7.56;100.00;104098.59;4861057;29;20065;-91
2021/12/17 10:30:34;;;;;;;50.47;22.52;;;;;;;7.54;100.00;104094.16;4861207;29;20037;-91
2021/12/17 10:33:04;;;;;;;56.88;23.25;;;;;;;7.57;100.00;104103.03;4876474;29;20032;-91
2021/12/17 10:35:31;;;;;;;46.83;20.27;;;;;;;7.58;100.00;104104.84;4860823;29;20029;-91
2021/12/17 10:38:06;;;;;;;53.92;22.52;;;;;;;7.59;100.00;104098.72;4876125;29;20025;-91
2021/12/17 10:40:32;;;;;;;50.60;21.00;;;;;;;7.59;100.00;104093.44;4860615;29;20129;-91
2021/12/17 10:43:07;;;;;;;52.15;21.77;;;;;;;7.58;100.00;104091.66;4860925;29;20504;-91
2021/12/17 10:45:41;;;;;;;52.40;21.65;;;;;;;7.61;100.00;104104.97;4876819;29;20040;-90
2021/12/17 10:50:54;;;;;;;52.53;22.87;;;;;;;7.61;100.00;104095.31;4880791;29;20113;-91
2021/12/17 10:53:24;;;;;;;53.00;21.90;;;;;;;7.61;100.00;104104.97;4864177;29;20355;-91
2021/12/17 10:55:50;;;;;;;50.43;22.33;;;;;;;7.62;100.00;104105.03;4879843;29;20056;-91
2021/12/17 10:58:16;;;;;;;49.72;20.67;;;;;;;7.62;100.00;104098.88;4848922;29;20041;-91
2021/12/17 11:00:47;;;;;;;45.25;20.48;;;;;;;7.65;100.00;104109.56;4848811;29;20113;-91
2021/12/17 11:03:13;;;;;;;47.42;20.15;;;;;;;7.65;100.00;104110.44;4879429;29;20075;-91
2021/12/17 11:05:39;;;;;;;51.05;20.38;;;;;;;7.66;100.00;104104.31;4864055;29;20033;-91
2021/12/17 11:08:19;;;;;;;49.08;20.98;;;;;;;7.66;100.00;104101.69;4864224;29;20089;-91
2021/12/17 11:10:56;;;;;;;45.95;18.17;;;;;;;7.68;100.00;104102.66;4863852;29;20033;-90
2021/12/17 11:13:22;;;;;;;42.70;17.27;;;;;;;7.68;100.00;104094.75;4865070;29;20088;-91
2021/12/17 11:15:49;;;;;;;42.97;17.52;;;;;;;7.70;100.00;104098.34;4848926;29;20466;-91
2021/12/17 11:18:15;;;;;;;37.88;15.30;;;;;;;7.71;100.00;104100.13;4864024;29;20561;-91
2021/12/17 11:20:41;;;;;;;35.40;14.40;;;;;;;7.71;100.00;104100.13;4879313;29;20029;-91
2021/12/17 11:23:11;;;;;;;36.85;13.70;;;;;;;7.73;100.00;104097.56;4879555;29;20033;-90
2021/12/17 11:25:39;;;;;;;35.97;14.07;;;;;;;7.75;100.00;104098.53;4863722;29;20045;-91
2021/12/17 11:28:07;;;;;;;34.25;13.88;;;;;;;7.76;100.00;104095.06;4863631;29;20036;-91
2021/12/17 11:30:34;;;;;;;31.83;13.25;;;;;;;7.78;100.00;104084.59;4879152;29;20132;-91
2021/12/17 11:33:02;;;;;;;28.80;12.02;;;;;;;7.75;100.00;104077.44;4879132;29;20538;-91
2021/12/17 11:35:29;;;;;;;29.10;12.80;;;;;;;7.81;100.00;104076.78;4848312;29;20048;-91
2021/12/17 11:37:59;;;;;;;25.50;12.38;;;;;;;7.83;100.00;104072.47;4863734;29;20040;-91
2021/12/17 11:40:48;;;;;;;27.05;11.20;;;;;;;7.86;100.00;104072.59;4878892;29;20041;-91
2021/12/17 11:43:33;;;;;;;23.77;10.02;;;;;;;7.88;100.00;104069.19;4879216;29;20098;-90
2021/12/17 11:46:21;;;;;;;20.77;9.18;;;;;;;7.86;100.00;104065.59;4878903;29;20041;-91
2021/12/17 11:48:56;;;;;;;24.33;9.55;;;;;;;7.86;100.00;104072.59;4878520;29;20076;-91
2021/12/17 11:51:26;;;;;;;22.30;10.68;;;;;;;7.85;100.00;104066.44;4880232;29;20355;-91
2021/12/17 11:53:52;;;;;;;23.58;10.52;;;;;;;7.86;100.00;104070.88;4863801;29;20342;-91
2021/12/17 11:56:34;;;;;;;23.15;8.85;;;;;;;7.88;100.00;104070.94;4863299;29;20029;-91
2021/12/17 11:59:01;;;;;;;21.33;9.45;;;;;;;7.88;100.00;104060.38;4878576;29;20120;-90
2021/12/17 12:02:16;;;;;;;21.27;9.60;;;;;;;7.93;100.00;104066.72;4878818;29;20109;-91
2021/12/17 12:04:57;;;;;;;19.60;8.75;;;;;;;7.91;100.00;104052.56;4863860;29;20048;-91
2021/12/17 12:07:23;;;;;;;14.88;8.07;;;;;;;7.91;99.48;104061.41;4878708;29;20096;-91
2021/12/17 12:09:59;;;;;;;17.15;7.85;;;;;;;7.91;99.68;104063.13;4878643;29;20330;-91
2021/12/17 12:12:28;;;;;;;16.92;8.05;;;;;;;7.91;99.82;104063.13;4878845;29;20033;-91
2021/12/17 12:14:55;;;;;;;14.07;6.60;;;;;;;7.88;98.80;104061.25;4878406;29;20044;-89
2021/12/17 12:17:57;;;;;;;11.20;5.70;;;;;;;7.88;99.00;104063.91;4863058;29;20181;-89
2021/12/17 12:20:45;;;;;;;10.85;6.07;;;;;;;7.86;98.63;104062.97;4878218;29;20070;-91
2021/12/17 12:23:29;;;;;;;7.38;4.78;;;;;;;7.86;98.14;104070.88;4878382;29;20048;-90
2021/12/17 12:26:01;;;;;;;9.45;6.38;;;;;;;7.83;97.89;104077.75;4862564;29;20454;-90
2021/12/17 12:28:44;;;;;;;13.68;5.65;;;;;;;7.82;97.80;104078.59;4862557;29;20044;-91
2021/12/17 12:31:16;;;;;;;11.80;6.20;;;;;;;7.80;97.84;104069.72;4862606;29;20068;-91
2021/12/17 12:34:00;;;;;;;12.27;5.88;;;;;;;7.79;98.18;104065.25;4862562;29;20113;-91
2021/12/17 12:36:50;;;;;;;10.50;5.47;;;;;;;7.79;97.63;104068.81;4862323;29;20113;-91
2021/12/17 12:39:18;;;;;;;11.00;5.25;;;;;;;7.78;97.68;104064.38;4862181;29;20041;-91
2021/12/17 12:42:20;;;;;;;11.55;5.53;;;;;;;7.77;97.70;104074.88;4877522;29;20445;-91
2021/12/17 12:44:45;;;;;;;10.02;5.43;;;;;;;7.75;97.48;104075.69;4877770;29;20047;-90
2021/12/17 12:47:38;;;;;;;7.25;4.40;;;;;;;7.71;96.87;104068.47;4862241;29;20119;-90
2021/12/17 12:50:04;;;;;;;8.90;4.88;;;;;;;7.70;96.99;104065.81;4878009;29;20059;-90
2021/12/17 12:52:30;;;;;;;7.55;4.68;;;;;;;7.68;97.31;104068.34;4862243;29;20493;-91
2021/12/17 12:55:06;;;;;;;7.93;4.07;;;;;;;7.64;96.81;104058.53;4862664;29;20126;-90
2021/12/17 12:57:34;;;;;;;9.32;3.92;;;;;;;7.62;95.98;104064.59;4879055;29;20037;-91
2021/12/17 13:00:05;;;;;;;8.10;3.38;;;;;;;7.59;95.93;104059.16;4862292;29;20036;-91
2021/12/17 13:02:31;;;;;;;12.00;7.75;;;;;;;7.58;96.40;104063.53;4862111;29;20040;-90
2021/12/17 13:04:59;;;;;;;8.00;4.43;;;;;;;7.58;95.80;104062.66;4846730;29;20028;-91
2021/12/17 13:07:44;;;;;;;5.55;3.65;;;;;;;7.54;96.21;104064.22;4878031;29;20446;-90
2021/12/17 13:10:15;;;;;;;6.18;3.72;;;;;;;7.56;96.27;104065.22;4861172;29;20124;-90
2021/12/17 13:12:46;;;;;;;7.53;4.95;;;;;;;7.56;96.04;104064.31;4862022;29;20329;-89
2021/12/17 13:15:38;;;;;;;5.75;3.92;;;;;;;7.49;96.12;104058.78;4861786;29;20033;-89
2021/12/17 13:23:26;;;;;;;6.60;4.05;;;;;;;7.44;95.90;104047.16;4874695;29;20041;-89
2021/12/17 13:26:09;;;;;;;7.63;4.38;;;;;;;7.45;96.28;104055.97;4882756;29;20039;-90
2021/12/17 13:28:54;;;;;;;6.82;4.50;;;;;;;7.44;96.74;104055.06;4877848;29;20119;-89
2021/12/17 13:31:33;;;;;;;6.57;3.92;;;;;;;7.45;96.55;104053.31;4862298;29;20124;-89
2021/12/17 13:33:59;;;;;;;7.68;4.28;;;;;;;7.40;96.80;104053.13;4862187;29;20188;-89
2021/12/17 13:36:25;;;;;;;8.20;4.63;;;;;;;7.35;96.12;104046.75;4877132;29;20052;-89
2021/12/17 13:38:58;;;;;;;9.32;6.32;;;;;;;7.39;96.49;104050.41;4861371;29;20047;-89
2021/12/17 13:41:44;;;;;;;15.02;9.77;;;;;;;7.41;97.22;104057.53;4861397;29;20421;-90
2021/12/17 13:44:33;;;;;;;11.57;7.78;;;;;;;7.43;96.48;104061.16;4861801;29;20037;-90
2021/12/17 13:47:28;;;;;;;8.77;5.13;;;;;;;7.42;96.34;104061.06;4876695;29;20033;-90
2021/12/17 13:50:14;;;;;;;5.35;3.92;;;;;;;7.39;96.42;104056.56;4876683;29;20052;-89
2021/12/17 13:52:50;;;;;;;5.65;3.40;;;;;;;7.36;96.09;104056.44;4861835;29;20097;-90
2021/12/17 13:55:21;;;;;;;5.72;3.30;;;;;;;7.28;95.53;104042.03;4861382;29;20407;-90
2021/12/17 13:57:47;;;;;;;7.13;3.60;;;;;;;7.31;95.71;104055.34;4861572;29;20108;-90
2021/12/17 14:00:25;;;;;;;5.03;3.10;;;;;;;7.29;95.84;104060.56;4845600;29;20108;-90
2021/12/17 14:02:54;;;;;;;6.05;3.10;;;;;;;7.27;95.48;104056.03;4876908;29;20064;-90
2021/12/17 14:05:40;;;;;;;5.45;3.30;;;;;;;7.25;95.92;104045.44;4861418;29;20028;-90
2021/12/17 14:08:09;;;;;;;10.27;5.05;;;;;;;7.20;96.18;104044.34;4861207;29;20056;-90
2021/12/17 14:10:36;;;;;;;5.18;3.40;;;;;;;7.23;95.63;104052.38;4845778;29;20061;-90
2021/12/17 14:13:04;;;;;;;5.95;3.88;;;;;;;7.24;95.63;104053.28;4876638;29;20032;-90
2021/12/17 14:15:33;;;;;;;6.53;4.22;;;;;;;7.21;95.76;104051.41;4861154;29;20124;-90
2021/12/17 14:18:05;;;;;;;5.82;4.15;;;;;;;7.28;96.13;104057.88;4861453;29;20048;-90
2021/12/17 14:20:41;;;;;;;7.70;3.95;;;;;;;7.25;96.09;104047.19;4862558;29;20069;-90
2021/12/17 14:23:14;;;;;;;6.70;4.25;;;;;;;7.22;96.16;104045.31;4864805;29;20041;-90
2021/12/17 14:25:47;;;;;;;6.70;4.32;;;;;;;7.28;96.07;104049.97;4864584;29;20120;-90
2021/12/17 14:28:13;;;;;;;5.85;4.00;;;;;;;7.28;96.24;104052.59;4864818;29;20040;-90
2021/12/17 14:30:41;;;;;;;5.40;4.13;;;;;;;7.23;96.05;104051.50;4865015;29;20236;-90
2021/12/17 14:33:08;;;;;;;5.43;4.60;;;;;;;7.27;95.96;104061.31;4864672;29;20040;-90
2021/12/17 14:35:46;;;;;;;6.18;3.75;;;;;;;7.26;96.46;104060.41;4880503;29;20114;-90
2021/12/17 14:38:15;;;;;;;7.00;4.22;;;;;;;7.20;96.10;104054.91;4880048;29;20040;-90
2021/12/17 14:40:49;;;;;;;9.73;4.47;;;;;;;7.20;96.30;104052.25;4880296;29;20048;-90
2021/12/17 14:43:25;;;;;;;7.38;5.38;;;;;;;7.22;95.50;104062.84;4880358;29;20041;-90
2021/12/17 14:46:03;;;;;;;10.68;4.90;;;;;;;7.18;95.43;104055.66;4864877;29;20104;-90
2021/12/17 14:48:40;;;;;;;7.47;4.45;;;;;;;7.16;95.17;104060.84;4879944;29;20056;-90
2021/12/17 15:00:12;;;;;;;15.73;10.32;;;;;;;7.17;94.64;104041.59;4879531;29;20569;-90
2021/12/17 15:04:43;;;;;;;6.00;4.32;;;;;;;7.13;93.26;104046.66;4864992;29;20136;-90